avis per tempestes more information blitzortung!


avis per Pluja more information rain snow radar


Visita la nostra xarxa de llocs de meteo:

Template documentation
and downloads

And another site



Thunderstorms From: 20-07-2018 17:00 Until: 21-07-2018 01:59 warning for: Thunderstorms Level: Yellow info button
Rain From: 20-07-2018 17:00 Until: 21-07-2018 01:59 warning for: Rain Level: Yellow info button

Pagina Historial Weather Underground text

Diari Resum May 20, 2016 Unitats:  Mètric    Imperial   Tant
« Previous Dia
SegĂźent Dia »
Diari Setmana Mensual Anual Personalitzada
  Maxima: Minima: Media:
Temperatura: -17.8 °C -10.1 °C -6.8 °C
Punt de rosada: -17.8 °C -12.3 °C -11.4 °C
Humitat: Humidity % 44 % 60 %
Wind Speed: 0 km/h 0 km/h 11.4 km/h
RĂ fegues de vent: 0 km/h - -
Vent:- - SSW
Pression baro: 0 hPa 34533.8 hPa -
Precipitacions: 0 mm    
Historical Graphs
 
 
Dades de taula per May 20, 2016
Temps Temperatura Punt de rosada Pression baro Vent Wind Speed RĂ fegues de vent Humitat Rainfall Rate (Hourly)
-17.8 °C -17.8 °C 0 hPa Calm     Humidity % 0 mm
00:00 -9.2 °C -11.8 °C 34567.7 hPa ESE 15 km/h 17.9 km/h 73 % 0 mm
00:05 -9.2 °C -11.8 °C 34567.7 hPa ESE 15 km/h 17.9 km/h 73 % 0 mm
00:10 -9.2 °C -11.8 °C 34567.7 hPa ESE 15 km/h 17.9 km/h 73 % 0 mm
00:35 -9.6 °C -11.6 °C 34601.5 hPa Calm   5.1 km/h 79 % 0 mm
01:05 -9.6 °C -11.6 °C 34601.5 hPa WSW 2.6 km/h 2.6 km/h 79 % 0 mm
01:15 -9.6 °C -11.6 °C 34601.5 hPa Calm     79 % 0 mm
01:25 -9.7 °C -11.7 °C 34601.5 hPa Calm   2.6 km/h 79 % 0 mm
01:35 -9.7 °C -11.7 °C 34601.5 hPa Calm     79 % 0 mm
01:45 -9.8 °C -11.7 °C 34601.5 hPa Calm     80 % 0 mm
01:55 -9.8 °C -11.8 °C 34601.5 hPa Calm   2.6 km/h 79 % 0 mm
02:05 -9.8 °C -11.8 °C 34601.5 hPa West 2.6 km/h 2.6 km/h 79 % 0 mm
02:15 -9.7 °C -11.6 °C 34601.5 hPa Calm     80 % 0 mm
02:25 -9.7 °C -11.6 °C 34635.4 hPa Calm   2.6 km/h 80 % 0 mm
02:35 -9.6 °C -11.4 °C 34601.5 hPa Calm   2.6 km/h 80 % 0 mm
02:45 -9.5 °C -11.4 °C 34601.5 hPa Calm     80 % 0 mm
02:55 -9.3 °C -11.1 °C 34601.5 hPa Calm   2.6 km/h 81 % 0 mm
03:05 -9.2 °C -11.1 °C 34601.5 hPa East 2.6 km/h 5.1 km/h 80 % 0 mm
03:15 -9.1 °C -11.2 °C 34601.5 hPa NE 5.1 km/h 7.7 km/h 79 % 0 mm
03:25 -8.9 °C -11 °C 34601.5 hPa ENE 5.1 km/h 7.7 km/h 78 % 0 mm
03:35 -8.7 °C -10.9 °C 34601.5 hPa NE 2.6 km/h 10.3 km/h 77 % 0 mm
03:45 -8.6 °C -10.9 °C 34601.5 hPa NNE 5.1 km/h 7.7 km/h 76 % 0 mm
03:55 -8.4 °C -10.9 °C 34635.4 hPa NE 2.6 km/h 10.3 km/h 75 % 0 mm
04:05 -8.3 °C -11.1 °C 34601.5 hPa NE 5.1 km/h 7.7 km/h 73 % 0 mm
04:15 -8.1 °C -10.9 °C 34601.5 hPa East 5.1 km/h 5.1 km/h 72 % 0 mm
04:25 -8 °C -10.8 °C 34601.5 hPa SW 5.1 km/h 5.1 km/h 72 % 0 mm
04:35 -7.8 °C -10.9 °C 34601.5 hPa North 5.1 km/h 7.7 km/h 70 % 0 mm
04:45 -7.7 °C -11.1 °C 34601.5 hPa West 2.6 km/h 7.7 km/h 68 % 0 mm
04:55 -7.5 °C -10.8 °C 34601.5 hPa East 2.6 km/h 7.7 km/h 68 % 0 mm
05:05 -7 °C -10.6 °C 34601.5 hPa ENE 2.6 km/h 7.7 km/h 66 % 0 mm
05:15 -7.3 °C -10.9 °C 34601.5 hPa ESE 2.6 km/h 10.3 km/h 66 % 0 mm
05:25 -7.3 °C -10.9 °C 34601.5 hPa ENE 7.7 km/h 12.9 km/h 66 % 0 mm
05:35 -7.2 °C -10.9 °C 34601.5 hPa ENE 5.1 km/h 10.3 km/h 65 % 0 mm
05:45 -6.7 °C -10.6 °C 34601.5 hPa SW 2.6 km/h 7.7 km/h 64 % 0 mm
05:55 -6.3 °C -10.6 °C 34601.5 hPa SW 2.6 km/h 5.1 km/h 61 % 0 mm
06:05 -6.6 °C -11.2 °C 34635.4 hPa SW 2.6 km/h 12.9 km/h 59 % 0 mm
06:15 -6.3 °C -11.1 °C 34635.4 hPa WSW 7.7 km/h 7.7 km/h 58 % 0 mm
06:25 -6 °C -10.8 °C 34601.5 hPa WNW 5.1 km/h 5.1 km/h 58 % 0 mm
06:35 -6.3 °C -11.1 °C 34635.4 hPa East 7.7 km/h 10.3 km/h 58 % 0 mm
06:45 -5.9 °C -10.7 °C 34635.4 hPa East 2.6 km/h 10.3 km/h 58 % 0 mm
06:55 -5.4 °C -10.9 °C 34601.5 hPa South 7.7 km/h 7.7 km/h 54 % 0 mm
07:05 -4.9 °C -10.7 °C 34601.5 hPa SSW 5.1 km/h 10.3 km/h 52 % 0 mm
07:15 -5.1 °C -10.8 °C 34601.5 hPa SSW 7.7 km/h 10.3 km/h 52 % 0 mm
07:25 -4.9 °C -11 °C 34601.5 hPa SSW 2.6 km/h 5.1 km/h 50 % 0 mm
07:35 -4.8 °C -11.2 °C 34601.5 hPa South 12.9 km/h 15.6 km/h 48 % 0 mm
07:45 -4.6 °C -10.9 °C 34601.5 hPa SSE 5.1 km/h 7.7 km/h 49 % 0 mm
07:55 -4.4 °C -11.1 °C 34601.5 hPa SSW 7.7 km/h 15.6 km/h 47 % 0 mm
08:05 -4.4 °C -11.4 °C 34601.5 hPa SW 7.7 km/h 10.3 km/h 45 % 0 mm
08:15 -4.6 °C -11.4 °C 34601.5 hPa SW 5.1 km/h 10.3 km/h 46 % 0 mm
08:25 -4.2 °C -11.1 °C 34567.7 hPa SW 5.1 km/h 7.7 km/h 46 % 0 mm
08:35 -3.6 °C -10.7 °C 34567.7 hPa SSW 5.1 km/h 10.3 km/h 45 % 0 mm
08:45 -4.4 °C -10.9 °C 34567.7 hPa ESE 20.8 km/h 20.8 km/h 48 % 0 mm
08:50 -4.3 °C -10.8 °C 34567.7 hPa ESE 15.6 km/h 15.6 km/h 48 % 0 mm
13:53 -4.3 °C -10.8 °C 34567.7 hPa South 15 km/h 15 km/h 48 % 0 mm
13:58 -4.2 °C -10.5 °C 34567.7 hPa SSE 3.1 km/h 9.3 km/h 49 % 0 mm
14:03 -4.2 °C -10.6 °C 34567.7 hPa NE 19.2 km/h 19.2 km/h 49 % 0 mm
14:08 -4.5 °C -10.7 °C 34567.7 hPa ESE 29.8 km/h 29.8 km/h 50 % 0 mm
14:13 -4.9 °C -11 °C 34567.7 hPa ESE 22 km/h 25.4 km/h 50 % 0 mm
14:18 -5.1 °C -10.9 °C 34567.7 hPa East 32.8 km/h 32.8 km/h 52 % 0 mm
14:23 -4.8 °C -10.7 °C 34567.7 hPa ESE 35.7 km/h 35.7 km/h 51 % 0 mm
14:28 -4.8 °C -10.6 °C 34567.7 hPa SE 26.9 km/h 26.9 km/h 52 % 0 mm
14:33 -4.9 °C -10.7 °C 34567.7 hPa East 25.9 km/h 25.9 km/h 52 % 0 mm
14:38 -5.1 °C -10.6 °C 34533.8 hPa SE 35.7 km/h 35.7 km/h 54 % 0 mm
14:43 -5.1 °C -10.5 °C 34533.8 hPa ESE 26.9 km/h 26.9 km/h 54 % 0 mm
14:48 -5.3 °C -10.8 °C 34533.8 hPa East 26.9 km/h 26.9 km/h 54 % 0 mm
14:53 -5.2 °C -10.7 °C 34567.7 hPa East 29.8 km/h 29.8 km/h 54 % 0 mm
14:58 -5.3 °C -10.7 °C 34567.7 hPa ESE 26.9 km/h 26.9 km/h 54 % 0 mm
15:03 -5.4 °C -10.7 °C 34567.7 hPa SE 26.9 km/h 26.9 km/h 55 % 0 mm
15:08 -5.5 °C -10.8 °C 34567.7 hPa ESE 20.9 km/h 20.9 km/h 55 % 0 mm
15:13 -5.6 °C -10.8 °C 34567.7 hPa SSE 20.9 km/h 20.9 km/h 55 % 0 mm
15:18 -5.6 °C -10.8 °C 34567.7 hPa ENE 15 km/h 15 km/h 55 % 0 mm
15:23 -5.6 °C -10.7 °C 34567.7 hPa ENE 20.9 km/h 20.9 km/h 56 % 0 mm
15:28 -5.7 °C -10.8 °C 34567.7 hPa ESE 16.6 km/h 17.9 km/h 56 % 0 mm
15:33 -5.7 °C -10.8 °C 34567.7 hPa SE 17.9 km/h 17.9 km/h 56 % 0 mm
15:38 -5.7 °C -10.8 °C 34567.7 hPa SE 29.8 km/h 29.8 km/h 56 % 0 mm
15:43 -5.6 °C -10.7 °C 34567.7 hPa ESE 15.3 km/h 15.3 km/h 56 % 0 mm
15:48 -5.5 °C -10.8 °C 34567.7 hPa East 17.9 km/h 17.9 km/h 55 % 0 mm
15:53 -5.1 °C -10.4 °C 34567.7 hPa SE 11.9 km/h 11.9 km/h 55 % 0 mm
15:58 -4.9 °C -10.6 °C 34567.7 hPa SSW 17.9 km/h 17.9 km/h 53 % 0 mm
16:03 -4.8 °C -10.4 °C 34567.7 hPa SW 20.3 km/h 20.3 km/h 53 % 0 mm
16:08 -4.5 °C -10.3 °C 34567.7 hPa SSE 9 km/h 9.8 km/h 52 % 0 mm
16:14 -4.2 °C -10.2 °C 34567.7 hPa SW 11.9 km/h 11.9 km/h 51 % 0 mm
16:19 -4.3 °C -10.6 °C 34567.7 hPa WSW 20.9 km/h 20.9 km/h 49 % 0 mm
16:24 -3.9 °C -10.3 °C 34567.7 hPa South 11.9 km/h 11.9 km/h 49 % 0 mm
16:29 -4.2 °C -10.5 °C 34567.7 hPa SSW 11.9 km/h 11.9 km/h 49 % 0 mm
16:34 -4.2 °C -10.7 °C 34567.7 hPa WSW 11.9 km/h 11.9 km/h 48 % 0 mm
16:39 -4.1 °C -10.7 °C 34567.7 hPa NNE 20.9 km/h 20.9 km/h 48 % 0 mm
16:44 -4.2 °C -10.9 °C 34567.7 hPa SW 11.9 km/h 11.9 km/h 47 % 0 mm
16:49 -4.2 °C -11.1 °C 34567.7 hPa SW 20.9 km/h 20.9 km/h 46 % 0 mm
16:54 -4.3 °C -11.2 °C 34533.8 hPa SW 17.9 km/h 17.9 km/h 46 % 0 mm
16:59 -4.2 °C -11.1 °C 34533.8 hPa SSW 11.9 km/h 11.9 km/h 46 % 0 mm
17:04 -4.1 °C -10.9 °C 34533.8 hPa WSW 15 km/h 15 km/h 46 % 0 mm
17:09 -4.3 °C -11.3 °C 34533.8 hPa SSW 23.8 km/h 23.8 km/h 45 % 0 mm
17:14 -4.1 °C -11.2 °C 34533.8 hPa SW 20.9 km/h 20.9 km/h 45 % 0 mm
17:19 -4.1 °C -11.2 °C 34533.8 hPa WSW 15 km/h 15 km/h 45 % 0 mm
17:24 -4.2 °C -11.2 °C 34533.8 hPa South 15 km/h 15 km/h 45 % 0 mm
17:29 -4.3 °C -11.6 °C 34533.8 hPa WSW 20.9 km/h 20.9 km/h 44 % 0 mm
17:34 -4.4 °C -11.4 °C 34533.8 hPa SW 7.6 km/h 7.6 km/h 45 % 0 mm
17:39 -4.3 °C -11.4 °C 34533.8 hPa WSW 16.6 km/h 16.6 km/h 45 % 0 mm
17:44 -4.4 °C -11.5 °C 34533.8 hPa SSW 15 km/h 15 km/h 45 % 0 mm
17:49 -4.5 °C -11.6 °C 34533.8 hPa SW 20.9 km/h 20.9 km/h 45 % 0 mm
17:54 -4.7 °C -11.6 °C 34533.8 hPa WSW 23.8 km/h 23.8 km/h 46 % 0 mm
17:59 -4.7 °C -11.5 °C 34533.8 hPa SSW 23.8 km/h 23.8 km/h 46 % 0 mm
18:04 -4.6 °C -11.4 °C 34533.8 hPa WSW 15 km/h 15 km/h 46 % 0 mm
18:09 -4.9 °C -11.7 °C 34533.8 hPa SSW 20.9 km/h 20.9 km/h 46 % 0 mm
18:14 -4.7 °C -11.3 °C 34533.8 hPa SSW 19.2 km/h 19.2 km/h 47 % 0 mm
18:19 -4.7 °C -11.3 °C 34533.8 hPa SW 15.3 km/h 15.3 km/h 47 % 0 mm
18:24 -4.7 °C -11.3 °C 34533.8 hPa SSW 20.9 km/h 20.9 km/h 47 % 0 mm
18:29 -4.8 °C -11.3 °C 34533.8 hPa SSE 8.5 km/h 8.5 km/h 48 % 0 mm
18:34 -4.8 °C -11.3 °C 34533.8 hPa SSW 26.9 km/h 26.9 km/h 48 % 0 mm
18:39 -5.2 °C -11.5 °C 34533.8 hPa SW 20.9 km/h 20.9 km/h 49 % 0 mm
18:44 -5.3 °C -11.6 °C 34533.8 hPa WSW 11.9 km/h 11.9 km/h 49 % 0 mm
18:49 -5.2 °C -11.4 °C 34533.8 hPa SW 20.9 km/h 20.9 km/h 49 % 0 mm
18:54 -5.3 °C -11.6 °C 34533.8 hPa SW 20.9 km/h 20.9 km/h 49 % 0 mm
18:59 -5.3 °C -11.6 °C 34533.8 hPa WSW 15 km/h 15 km/h 49 % 0 mm
19:04 -5.5 °C -11.7 °C 34533.8 hPa WSW 23.8 km/h 23.8 km/h 49 % 0 mm
19:09 -5.8 °C -11.8 °C 34533.8 hPa SSW 15 km/h 15 km/h 50 % 0 mm
19:19 -5.8 °C -11.8 °C 34533.8 hPa SW 15.3 km/h 15.3 km/h 50 % 0 mm
19:20 -9.1 °C -11.7 °C 34601.5 hPa WSW 2.6 km/h 7.7 km/h 73 % 0 mm
19:24 -5.9 °C -11.9 °C 34533.8 hPa WSW 23.8 km/h 23.8 km/h 50 % 0 mm
19:29 -6.1 °C -11.9 °C 34533.8 hPa WSW 15 km/h 15 km/h 51 % 0 mm
19:30 -9.1 °C -11.6 °C 34601.5 hPa WSW 5.1 km/h 7.7 km/h 74 % 0 mm
19:34 -6.1 °C -11.9 °C 34533.8 hPa West 15 km/h 15 km/h 51 % 0 mm
19:39 -6.2 °C -11.8 °C 34533.8 hPa West 9 km/h 9 km/h 52 % 0 mm
19:40 -9.1 °C -11.6 °C 34601.5 hPa SW 2.6 km/h 10.3 km/h 75 % 0 mm
19:44 -6.2 °C -11.8 °C 34533.8 hPa WSW 15 km/h 15 km/h 52 % 0 mm
19:49 -6.3 °C -11.9 °C 34533.8 hPa SW 17.9 km/h 17.9 km/h 52 % 0 mm
19:50 -9.2 °C -11.6 °C 34601.5 hPa SW 2.6 km/h 5.1 km/h 75 % 0 mm
19:54 -6.4 °C -12.1 °C 34567.7 hPa West 17.9 km/h 17.9 km/h 52 % 0 mm
19:59 -6.4 °C -11.9 °C 34567.7 hPa SW 16.6 km/h 16.6 km/h 53 % 0 mm
20:00 -9.3 °C -11.6 °C 34601.5 hPa WSW 2.6 km/h 5.1 km/h 76 % 0 mm
20:04 -6.6 °C -11.9 °C 34567.7 hPa SW 15 km/h 15 km/h 54 % 0 mm
20:09 -6.6 °C -11.9 °C 34567.7 hPa WSW 15 km/h 15 km/h 54 % 0 mm
20:10 -9.3 °C -11.5 °C 34601.5 hPa WSW 5.1 km/h 7.7 km/h 77 % 0 mm
20:14 -6.7 °C -11.9 °C 34567.7 hPa SW 15 km/h 15 km/h 55 % 0 mm
20:20 -9.3 °C -11.4 °C 34601.5 hPa SW 5.1 km/h 7.7 km/h 78 % 0 mm
20:24 -6.8 °C -11.8 °C 34533.8 hPa South 17.9 km/h 17.9 km/h 56 % 0 mm
20:29 -7 °C -11.8 °C 34533.8 hPa WSW 15 km/h 15 km/h 57 % 0 mm
20:30 -9.4 °C -11.4 °C 34601.5 hPa SW 2.6 km/h 7.7 km/h 79 % 0 mm
20:34 -7.1 °C -11.9 °C 34533.8 hPa SW 15 km/h 15 km/h 57 % 0 mm
20:39 -7.1 °C -11.8 °C 34567.7 hPa WSW 11.9 km/h 11.9 km/h 58 % 0 mm
20:44 -7.2 °C -11.8 °C 34567.7 hPa South 17.4 km/h 17.4 km/h 58 % 0 mm
20:49 -7.2 °C -11.9 °C 34567.7 hPa SW 15 km/h 15 km/h 58 % 0 mm
20:50 -9.6 °C -11.4 °C 34601.5 hPa SW 5.1 km/h 7.7 km/h 80 % 0 mm
20:54 -7.3 °C -11.9 °C 34567.7 hPa SW 10.3 km/h 11.6 km/h 59 % 0 mm
20:59 -7.4 °C -11.8 °C 34567.7 hPa SSW 12.2 km/h 12.2 km/h 60 % 0 mm
21:00 -9.6 °C -11.3 °C 34601.5 hPa WSW 2.6 km/h 7.7 km/h 81 % 0 mm
21:04 -7.5 °C -11.9 °C 34567.7 hPa SSW 12.2 km/h 12.2 km/h 60 % 0 mm
21:09 -7.6 °C -11.9 °C 34567.7 hPa SSW 11.9 km/h 11.9 km/h 60 % 0 mm
21:10 -9.6 °C -11.3 °C 34567.7 hPa WSW 2.6 km/h 5.1 km/h 81 % 0 mm
21:14 -7.6 °C -12 °C 34567.7 hPa WSW 11.9 km/h 11.9 km/h 60 % 0 mm
21:19 -7.7 °C -12.1 °C 34567.7 hPa SSW 9.3 km/h 9.8 km/h 60 % 0 mm
21:20 -9.6 °C -11.2 °C 34567.7 hPa West 5.1 km/h 10.3 km/h 82 % 0 mm
21:24 -7.7 °C -12.1 °C 34567.7 hPa SSW 9.3 km/h 9.8 km/h 60 % 0 mm
21:29 -7.8 °C -12 °C 34567.7 hPa SW 6 km/h 6.8 km/h 61 % 0 mm
21:30 -9.6 °C -11.2 °C 34567.7 hPa West 2.6 km/h 7.7 km/h 83 % 0 mm
21:34 -7.9 °C -12 °C 34567.7 hPa SW 17.9 km/h 17.9 km/h 62 % 0 mm
21:39 -7.9 °C -12.1 °C 34567.7 hPa SSW 12.7 km/h 12.7 km/h 62 % 0 mm
21:40 -9.7 °C -11.2 °C 34567.7 hPa WSW 5.1 km/h 7.7 km/h 84 % 0 mm
21:44 -8.1 °C -12.2 °C 34567.7 hPa West 9 km/h 9 km/h 62 % 0 mm
21:50 -9.7 °C -11.2 °C 34567.7 hPa WSW 2.6 km/h 5.1 km/h 84 % 0 mm
21:54 -8.1 °C -12.2 °C 34567.7 hPa WSW 9 km/h 11.6 km/h 62 % 0 mm
21:59 -8.2 °C -12.3 °C 34567.7 hPa SW 9 km/h 9 km/h 62 % 0 mm
22:00 -9.9 °C -11.3 °C 34567.7 hPa WSW 5.1 km/h 7.7 km/h 84 % 0 mm
22:04 -8.2 °C -12.3 °C 34567.7 hPa WSW 6 km/h 6 km/h 62 % 0 mm
22:09 -8.3 °C -12.2 °C 34601.5 hPa SW 6 km/h 6.3 km/h 63 % 0 mm
22:10 -10 °C -11.4 °C 34533.8 hPa SW 7.7 km/h 10.3 km/h 85 % 0 mm
22:14 -8.3 °C -12.3 °C 34601.5 hPa SW 11.9 km/h 11.9 km/h 63 % 0 mm
22:19 -8.3 °C -12.3 °C 34601.5 hPa WSW 9 km/h 9.3 km/h 63 % 0 mm
22:20 -10.1 °C -11.3 °C 34533.8 hPa WSW 5.1 km/h 7.7 km/h 86 % 0 mm
22:24 -8.4 °C -12.2 °C 34601.5 hPa WSW 9 km/h 9.3 km/h 64 % 0 mm
22:30 -8.4 °C -12.3 °C 34601.5 hPa WSW 7.6 km/h 7.6 km/h 64 % 0 mm
22:35 -8.4 °C -12.1 °C 34601.5 hPa SW 6.3 km/h 6.8 km/h 65 % 0 mm
22:40 -8.5 °C -12.2 °C 34601.5 hPa SW 9 km/h 9 km/h 65 % 0 mm
22:45 -8.6 °C -12.2 °C 34601.5 hPa SW 6.3 km/h 6.3 km/h 65 % 0 mm
22:50 -8.6 °C -12.3 °C 34601.5 hPa SW 5.1 km/h 10.3 km/h 65 % 0 mm
22:55 -8.6 °C -12.3 °C 34601.5 hPa SW 9 km/h 9 km/h 65 % 0 mm
23:00 -8.6 °C -12.2 °C 34601.5 hPa WSW 5.1 km/h 12.9 km/h 66 % 0 mm
23:05 -8.7 °C -12.2 °C 34601.5 hPa WSW 5.1 km/h 10.3 km/h 66 % 0 mm
23:10 -8.7 °C -12.2 °C 34601.5 hPa WSW 6 km/h 6 km/h 66 % 0 mm
23:15 -8.7 °C -12.2 °C 34601.5 hPa SW 7.6 km/h 7.6 km/h 66 % 0 mm
23:20 -8.7 °C -12.1 °C 34601.5 hPa WSW 5.1 km/h 7.7 km/h 67 % 0 mm
23:25 -8.8 °C -12.2 °C 34601.5 hPa WSW 5.1 km/h 12.9 km/h 67 % 0 mm
23:30 -8.8 °C -12.1 °C 34601.5 hPa WSW 5.1 km/h 12.9 km/h 68 % 0 mm
23:35 -8.8 °C -12.1 °C 34601.5 hPa WSW 5.1 km/h 7.7 km/h 68 % 0 mm
23:40 -8.9 °C -12.1 °C 34601.5 hPa SW 2.6 km/h 5.1 km/h 69 % 0 mm
23:50 -8.9 °C -11.9 °C 34601.5 hPa SW 2.6 km/h 5.1 km/h 70 % 0 mm
23:55 -8.9 °C -12 °C 34567.7 hPa WSW 4.2 km/h 5.1 km/h 70 % 0 mm
Meteo Sesrovires
Elogis d' Weather Underground - 2 mb

Guio original per  Jim McMurry - jmcmurry@mwt.net Adaptat per a la plantilla per  Wim van der Kuil - Leuven-Template.eu

Trobareu la nostra informacio del temps tambe a:

Weather Underground

AWEKAS